sensor_id;sensor_type;location;lat;lon;timestamp;temperature;humidity
73570;SHT30;61850;54.980;73.298;2022-12-07T00:01:16;-16.28;81.71
73570;SHT30;61850;54.980;73.298;2022-12-07T00:03:53;-16.21;81.62
73570;SHT30;61850;54.980;73.298;2022-12-07T00:06:20;-16.14;81.38
73570;SHT30;61850;54.980;73.298;2022-12-07T00:08:51;-16.18;81.28
73570;SHT30;61850;54.980;73.298;2022-12-07T00:11:18;-16.22;81.43
73570;SHT30;61850;54.980;73.298;2022-12-07T00:13:46;-16.14;81.33
73570;SHT30;61850;54.980;73.298;2022-12-07T00:16:14;-16.11;81.18
73570;SHT30;61850;54.980;73.298;2022-12-07T00:18:45;-16.08;80.91
73570;SHT30;61850;54.980;73.298;2022-12-07T00:21:23;-16.12;80.82
73570;SHT30;61850;54.980;73.298;2022-12-07T00:23:50;-16.12;80.87
73570;SHT30;61850;54.980;73.298;2022-12-07T00:28:50;-16.02;80.52
73570;SHT30;61850;54.980;73.298;2022-12-07T00:31:17;-16.01;80.61
73570;SHT30;61850;54.980;73.298;2022-12-07T00:33:53;-15.99;80.56
73570;SHT30;61850;54.980;73.298;2022-12-07T00:36:21;-15.94;80.54
73570;SHT30;61850;54.980;73.298;2022-12-07T00:38:57;-15.98;80.25
73570;SHT30;61850;54.980;73.298;2022-12-07T00:41:29;-15.94;80.06
73570;SHT30;61850;54.980;73.298;2022-12-07T00:43:56;-15.91;79.99
73570;SHT30;61850;54.980;73.298;2022-12-07T00:46:25;-15.88;79.82
73570;SHT30;61850;54.980;73.298;2022-12-07T00:49:00;-15.83;79.80
73570;SHT30;61850;54.980;73.298;2022-12-07T00:51:27;-15.71;79.49
73570;SHT30;61850;54.980;73.298;2022-12-07T00:53:58;-15.74;79.20
73570;SHT30;61850;54.980;73.298;2022-12-07T00:56:31;-15.70;79.14
73570;SHT30;61850;54.980;73.298;2022-12-07T00:58:58;-15.63;78.83
73570;SHT30;61850;54.980;73.298;2022-12-07T01:01:24;-15.56;78.67
73570;SHT30;61850;54.980;73.298;2022-12-07T01:03:51;-15.56;78.50
73570;SHT30;61850;54.980;73.298;2022-12-07T01:06:18;-15.55;78.51
73570;SHT30;61850;54.980;73.298;2022-12-07T01:08:45;-15.56;77.99
73570;SHT30;61850;54.980;73.298;2022-12-07T01:11:13;-15.57;77.61
73570;SHT30;61850;54.980;73.298;2022-12-07T01:13:50;-15.60;77.83
73570;SHT30;61850;54.980;73.298;2022-12-07T01:16:26;-15.62;77.68
73570;SHT30;61850;54.980;73.298;2022-12-07T01:18:53;-15.63;77.87
73570;SHT30;61850;54.980;73.298;2022-12-07T01:21:23;-15.60;77.86
73570;SHT30;61850;54.980;73.298;2022-12-07T01:23:50;-15.67;77.83
73570;SHT30;61850;54.980;73.298;2022-12-07T01:26:18;-15.60;78.01
73570;SHT30;61850;54.980;73.298;2022-12-07T01:28:45;-15.53;77.66
73570;SHT30;61850;54.980;73.298;2022-12-07T01:31:13;-15.47;77.65
73570;SHT30;61850;54.980;73.298;2022-12-07T01:33:53;-15.49;77.67
73570;SHT30;61850;54.980;73.298;2022-12-07T01:38:50;-15.56;77.98
73570;SHT30;61850;54.980;73.298;2022-12-07T01:41:19;-15.62;78.25
73570;SHT30;61850;54.980;73.298;2022-12-07T01:46:29;-15.86;78.78
73570;SHT30;61850;54.980;73.298;2022-12-07T01:48:57;-15.90;79.12
73570;SHT30;61850;54.980;73.298;2022-12-07T01:51:23;-15.94;79.30
73570;SHT30;61850;54.980;73.298;2022-12-07T01:53:50;-15.97;79.66
73570;SHT30;61850;54.980;73.298;2022-12-07T01:56:17;-16.07;79.64
73570;SHT30;61850;54.980;73.298;2022-12-07T01:58:51;-16.11;80.01
73570;SHT30;61850;54.980;73.298;2022-12-07T02:01:19;-16.14;80.15
73570;SHT30;61850;54.980;73.298;2022-12-07T02:03:45;-16.16;80.15
73570;SHT30;61850;54.980;73.298;2022-12-07T02:06:13;-16.21;80.13
73570;SHT30;61850;54.980;73.298;2022-12-07T02:08:51;-16.24;80.26
73570;SHT30;61850;54.980;73.298;2022-12-07T02:11:18;-16.28;80.12
73570;SHT30;61850;54.980;73.298;2022-12-07T02:13:45;-16.33;79.99
73570;SHT30;61850;54.980;73.298;2022-12-07T02:24:01;-16.38;80.31
73570;SHT30;61850;54.980;73.298;2022-12-07T02:31:26;-16.38;80.32
73570;SHT30;61850;54.980;73.298;2022-12-07T02:33:57;-16.42;80.18
73570;SHT30;61850;54.980;73.298;2022-12-07T02:36:30;-16.42;80.16
73570;SHT30;61850;54.980;73.298;2022-12-07T02:39:11;-16.40;80.02
73570;SHT30;61850;54.980;73.298;2022-12-07T02:41:59;-16.36;79.72
73570;SHT30;61850;54.980;73.298;2022-12-07T02:44:28;-16.33;79.70
73570;SHT30;61850;54.980;73.298;2022-12-07T02:46:59;-16.28;79.49
73570;SHT30;61850;54.980;73.298;2022-12-07T02:49:27;-16.19;79.23
73570;SHT30;61850;54.980;73.298;2022-12-07T02:51:54;-16.14;79.00
73570;SHT30;61850;54.980;73.298;2022-12-07T02:54:20;-16.09;78.70
73570;SHT30;61850;54.980;73.298;2022-12-07T02:56:56;-16.09;78.49
73570;SHT30;61850;54.980;73.298;2022-12-07T03:07:37;-16.35;79.53
73570;SHT30;61850;54.980;73.298;2022-12-07T03:12:46;-16.35;79.96
73570;SHT30;61850;54.980;73.298;2022-12-07T03:15:26;-16.36;79.62
73570;SHT30;61850;54.980;73.298;2022-12-07T03:17:54;-16.35;79.08
73570;SHT30;61850;54.980;73.298;2022-12-07T03:20:23;-16.42;78.59
73570;SHT30;61850;54.980;73.298;2022-12-07T03:22:51;-16.43;78.04
73570;SHT30;61850;54.980;73.298;2022-12-07T03:25:18;-16.49;77.67
73570;SHT30;61850;54.980;73.298;2022-12-07T03:30:28;-16.36;76.86
73570;SHT30;61850;54.980;73.298;2022-12-07T03:33:13;-16.29;76.52
73570;SHT30;61850;54.980;73.298;2022-12-07T03:35:45;-16.35;76.45
73570;SHT30;61850;54.980;73.298;2022-12-07T03:40:52;-16.33;76.98
73570;SHT30;61850;54.980;73.298;2022-12-07T03:43:19;-16.42;77.49
73570;SHT30;61850;54.980;73.298;2022-12-07T03:48:28;-16.38;77.58
73570;SHT30;61850;54.980;73.298;2022-12-07T03:53:27;-16.43;77.86
73570;SHT30;61850;54.980;73.298;2022-12-07T03:55:54;-16.40;77.88
73570;SHT30;61850;54.980;73.298;2022-12-07T03:58:28;-16.38;77.60
73570;SHT30;61850;54.980;73.298;2022-12-07T04:00:56;-16.50;77.74
73570;SHT30;61850;54.980;73.298;2022-12-07T04:03:22;-16.49;77.82
73570;SHT30;61850;54.980;73.298;2022-12-07T04:05:48;-16.53;77.62
73570;SHT30;61850;54.980;73.298;2022-12-07T04:08:14;-16.55;77.79
73570;SHT30;61850;54.980;73.298;2022-12-07T04:10:40;-16.50;77.79
73570;SHT30;61850;54.980;73.298;2022-12-07T04:13:16;-16.46;77.74
73570;SHT30;61850;54.980;73.298;2022-12-07T04:15:42;-16.45;77.58
73570;SHT30;61850;54.980;73.298;2022-12-07T04:18:09;-16.47;77.73
73570;SHT30;61850;54.980;73.298;2022-12-07T04:20:35;-16.45;77.82
73570;SHT30;61850;54.980;73.298;2022-12-07T04:23:01;-16.43;77.86
73570;SHT30;61850;54.980;73.298;2022-12-07T04:25:27;-16.53;77.96
73570;SHT30;61850;54.980;73.298;2022-12-07T04:27:53;-16.53;78.22
73570;SHT30;61850;54.980;73.298;2022-12-07T04:30:19;-16.53;78.36
73570;SHT30;61850;54.980;73.298;2022-12-07T04:32:45;-16.56;78.39
73570;SHT30;61850;54.980;73.298;2022-12-07T04:35:12;-16.56;78.54
73570;SHT30;61850;54.980;73.298;2022-12-07T04:37:38;-16.56;78.62
73570;SHT30;61850;54.980;73.298;2022-12-07T04:40:06;-16.59;78.73
73570;SHT30;61850;54.980;73.298;2022-12-07T04:42:33;-16.53;78.64
73570;SHT30;61850;54.980;73.298;2022-12-07T04:44:59;-16.49;78.46
73570;SHT30;61850;54.980;73.298;2022-12-07T04:47:25;-16.59;78.50
73570;SHT30;61850;54.980;73.298;2022-12-07T04:49:51;-16.43;78.77
73570;SHT30;61850;54.980;73.298;2022-12-07T04:52:17;-16.35;78.49
73570;SHT30;61850;54.980;73.298;2022-12-07T04:54:43;-16.42;78.58
73570;SHT30;61850;54.980;73.298;2022-12-07T04:57:09;-16.39;78.58
73570;SHT30;61850;54.980;73.298;2022-12-07T04:59:38;-16.24;78.60
73570;SHT30;61850;54.980;73.298;2022-12-07T05:02:04;-16.25;78.32
73570;SHT30;61850;54.980;73.298;2022-12-07T05:04:30;-16.22;78.32
73570;SHT30;61850;54.980;73.298;2022-12-07T05:07:05;-16.09;78.37
73570;SHT30;61850;54.980;73.298;2022-12-07T05:09:31;-16.07;78.30
73570;SHT30;61850;54.980;73.298;2022-12-07T05:11:57;-16.09;78.69
73570;SHT30;61850;54.980;73.298;2022-12-07T05:14:23;-15.99;78.56
73570;SHT30;61850;54.980;73.298;2022-12-07T05:16:49;-15.99;78.74
73570;SHT30;61850;54.980;73.298;2022-12-07T05:19:16;-16.07;78.74
73570;SHT30;61850;54.980;73.298;2022-12-07T05:21:42;-15.95;79.01
73570;SHT30;61850;54.980;73.298;2022-12-07T05:24:14;-16.01;78.99
73570;SHT30;61850;54.980;73.298;2022-12-07T05:26:41;-15.98;78.99
73570;SHT30;61850;54.980;73.298;2022-12-07T05:29:07;-15.99;79.04
73570;SHT30;61850;54.980;73.298;2022-12-07T05:31:35;-16.01;79.26
73570;SHT30;61850;54.980;73.298;2022-12-07T05:34:01;-16.07;79.42
73570;SHT30;61850;54.980;73.298;2022-12-07T05:36:28;-16.11;79.79
73570;SHT30;61850;54.980;73.298;2022-12-07T05:38:54;-16.14;80.03
73570;SHT30;61850;54.980;73.298;2022-12-07T05:41:20;-16.21;80.11
73570;SHT30;61850;54.980;73.298;2022-12-07T05:44:08;-16.28;80.13
73570;SHT30;61850;54.980;73.298;2022-12-07T05:46:35;-16.24;80.19
73570;SHT30;61850;54.980;73.298;2022-12-07T05:49:01;-16.19;80.19
73570;SHT30;61850;54.980;73.298;2022-12-07T05:51:28;-16.19;80.19
73570;SHT30;61850;54.980;73.298;2022-12-07T05:54:02;-16.07;79.75
73570;SHT30;61850;54.980;73.298;2022-12-07T05:56:31;-16.04;79.45
73570;SHT30;61850;54.980;73.298;2022-12-07T05:59:03;-16.05;78.99
73570;SHT30;61850;54.980;73.298;2022-12-07T06:01:48;-15.93;78.59
73570;SHT30;61850;54.980;73.298;2022-12-07T06:04:14;-15.97;78.35
73570;SHT30;61850;54.980;73.298;2022-12-07T06:06:40;-15.93;78.19
73570;SHT30;61850;54.980;73.298;2022-12-07T06:09:06;-15.98;78.18
73570;SHT30;61850;54.980;73.298;2022-12-07T06:11:32;-16.01;78.55
73570;SHT30;61850;54.980;73.298;2022-12-07T06:14:17;-16.16;78.80
73570;SHT30;61850;54.980;73.298;2022-12-07T06:16:44;-16.14;78.90
73570;SHT30;61850;54.980;73.298;2022-12-07T06:19:10;-15.99;78.34
73570;SHT30;61850;54.980;73.298;2022-12-07T06:21:44;-15.88;77.85
73570;SHT30;61850;54.980;73.298;2022-12-07T06:24:11;-15.84;77.64
73570;SHT30;61850;54.980;73.298;2022-12-07T06:26:38;-15.81;77.41
73570;SHT30;61850;54.980;73.298;2022-12-07T06:29:04;-15.77;77.47
73570;SHT30;61850;54.980;73.298;2022-12-07T06:31:30;-15.67;77.26
73570;SHT30;61850;54.980;73.298;2022-12-07T06:34:03;-15.73;77.18
73570;SHT30;61850;54.980;73.298;2022-12-07T06:36:29;-15.45;76.76
73570;SHT30;61850;54.980;73.298;2022-12-07T06:39:00;-15.42;76.07
73570;SHT30;61850;54.980;73.298;2022-12-07T06:41:27;-15.32;75.63
73570;SHT30;61850;54.980;73.298;2022-12-07T06:43:53;-15.10;75.30
73570;SHT30;61850;54.980;73.298;2022-12-07T06:46:18;-15.14;75.43
73570;SHT30;61850;54.980;73.298;2022-12-07T06:48:53;-15.21;75.70
73570;SHT30;61850;54.980;73.298;2022-12-07T06:51:29;-15.31;75.95
73570;SHT30;61850;54.980;73.298;2022-12-07T06:53:55;-15.35;76.19
73570;SHT30;61850;54.980;73.298;2022-12-07T06:56:26;-15.28;76.13
73570;SHT30;61850;54.980;73.298;2022-12-07T06:58:53;-15.22;76.15
73570;SHT30;61850;54.980;73.298;2022-12-07T07:01:19;-15.11;75.42
73570;SHT30;61850;54.980;73.298;2022-12-07T07:03:45;-15.17;74.97
73570;SHT30;61850;54.980;73.298;2022-12-07T07:06:12;-15.35;75.40
73570;SHT30;61850;54.980;73.298;2022-12-07T07:08:39;-15.21;75.64
73570;SHT30;61850;54.980;73.298;2022-12-07T07:11:07;-15.05;75.41
73570;SHT30;61850;54.980;73.298;2022-12-07T07:13:33;-15.05;75.15
73570;SHT30;61850;54.980;73.298;2022-12-07T07:15:59;-15.00;74.58
73570;SHT30;61850;54.980;73.298;2022-12-07T07:18:25;-14.98;73.77
73570;SHT30;61850;54.980;73.298;2022-12-07T07:20:52;-14.96;73.43
73570;SHT30;61850;54.980;73.298;2022-12-07T07:23:18;-14.96;73.52
73570;SHT30;61850;54.980;73.298;2022-12-07T07:25:45;-14.88;73.66
73570;SHT30;61850;54.980;73.298;2022-12-07T07:28:11;-14.87;73.57
73570;SHT30;61850;54.980;73.298;2022-12-07T07:30:44;-14.86;73.87
73570;SHT30;61850;54.980;73.298;2022-12-07T07:33:10;-14.75;73.60
73570;SHT30;61850;54.980;73.298;2022-12-07T07:35:36;-14.73;73.94
73570;SHT30;61850;54.980;73.298;2022-12-07T07:38:02;-14.81;73.76
73570;SHT30;61850;54.980;73.298;2022-12-07T07:40:29;-14.77;73.95
73570;SHT30;61850;54.980;73.298;2022-12-07T07:42:55;-14.70;73.88
73570;SHT30;61850;54.980;73.298;2022-12-07T07:45:22;-14.75;74.16
73570;SHT30;61850;54.980;73.298;2022-12-07T07:47:48;-14.70;74.37
73570;SHT30;61850;54.980;73.298;2022-12-07T07:50:14;-14.79;74.38
73570;SHT30;61850;54.980;73.298;2022-12-07T07:52:41;-14.77;74.44
73570;SHT30;61850;54.980;73.298;2022-12-07T07:55:08;-14.79;75.00
73570;SHT30;61850;54.980;73.298;2022-12-07T07:57:37;-14.88;74.92
73570;SHT30;61850;54.980;73.298;2022-12-07T08:00:04;-14.77;74.97
73570;SHT30;61850;54.980;73.298;2022-12-07T08:02:38;-14.76;75.13
73570;SHT30;61850;54.980;73.298;2022-12-07T08:05:04;-14.80;75.36
73570;SHT30;61850;54.980;73.298;2022-12-07T08:07:40;-14.79;75.30
73570;SHT30;61850;54.980;73.298;2022-12-07T08:10:07;-14.73;75.26
73570;SHT30;61850;54.980;73.298;2022-12-07T08:12:35;-14.65;75.40
73570;SHT30;61850;54.980;73.298;2022-12-07T08:15:01;-14.60;75.24
73570;SHT30;61850;54.980;73.298;2022-12-07T08:17:28;-14.57;75.43
73570;SHT30;61850;54.980;73.298;2022-12-07T08:19:54;-14.60;75.06
73570;SHT30;61850;54.980;73.298;2022-12-07T08:22:20;-14.60;75.00
73570;SHT30;61850;54.980;73.298;2022-12-07T08:24:46;-14.57;75.11
73570;SHT30;61850;54.980;73.298;2022-12-07T08:27:17;-14.53;75.50
73570;SHT30;61850;54.980;73.298;2022-12-07T08:29:44;-14.50;75.39
73570;SHT30;61850;54.980;73.298;2022-12-07T08:32:10;-14.56;75.69
73570;SHT30;61850;54.980;73.298;2022-12-07T08:34:37;-14.46;75.13
73570;SHT30;61850;54.980;73.298;2022-12-07T08:37:03;-14.53;75.50
73570;SHT30;61850;54.980;73.298;2022-12-07T08:39:29;-14.46;76.01
73570;SHT30;61850;54.980;73.298;2022-12-07T08:41:55;-14.48;76.05
73570;SHT30;61850;54.980;73.298;2022-12-07T08:44:21;-14.45;75.65
73570;SHT30;61850;54.980;73.298;2022-12-07T08:46:57;-14.38;75.79
73570;SHT30;61850;54.980;73.298;2022-12-07T08:49:26;-14.35;75.70
73570;SHT30;61850;54.980;73.298;2022-12-07T08:51:54;-14.36;75.30
73570;SHT30;61850;54.980;73.298;2022-12-07T08:54:21;-14.36;75.65
73570;SHT30;61850;54.980;73.298;2022-12-07T08:56:47;-14.36;75.51
73570;SHT30;61850;54.980;73.298;2022-12-07T08:59:20;-14.31;75.24
73570;SHT30;61850;54.980;73.298;2022-12-07T09:01:46;-14.24;74.99
73570;SHT30;61850;54.980;73.298;2022-12-07T09:04:17;-14.35;74.99
73570;SHT30;61850;54.980;73.298;2022-12-07T09:06:54;-14.45;74.72
73570;SHT30;61850;54.980;73.298;2022-12-07T09:09:21;-14.46;72.41
73570;SHT30;61850;54.980;73.298;2022-12-07T09:11:47;-14.50;71.78
73570;SHT30;61850;54.980;73.298;2022-12-07T09:14:13;-14.60;72.57
73570;SHT30;61850;54.980;73.298;2022-12-07T09:16:39;-14.52;72.68
73570;SHT30;61850;54.980;73.298;2022-12-07T09:19:05;-14.52;73.12
73570;SHT30;61850;54.980;73.298;2022-12-07T09:21:37;-14.42;73.69
73570;SHT30;61850;54.980;73.298;2022-12-07T09:24:03;-14.52;72.72
73570;SHT30;61850;54.980;73.298;2022-12-07T09:26:29;-14.56;71.76
73570;SHT30;61850;54.980;73.298;2022-12-07T09:28:57;-14.62;71.56
73570;SHT30;61850;54.980;73.298;2022-12-07T09:31:24;-14.65;71.54
73570;SHT30;61850;54.980;73.298;2022-12-07T09:34:00;-14.66;71.93
73570;SHT30;61850;54.980;73.298;2022-12-07T09:36:26;-14.59;72.89
73570;SHT30;61850;54.980;73.298;2022-12-07T09:38:53;-14.50;72.83
73570;SHT30;61850;54.980;73.298;2022-12-07T09:41:19;-14.46;72.50
73570;SHT30;61850;54.980;73.298;2022-12-07T09:43:47;-14.50;72.26
73570;SHT30;61850;54.980;73.298;2022-12-07T09:46:14;-14.50;72.09
73570;SHT30;61850;54.980;73.298;2022-12-07T09:48:51;-14.56;72.29
73570;SHT30;61850;54.980;73.298;2022-12-07T09:51:18;-14.65;71.16
73570;SHT30;61850;54.980;73.298;2022-12-07T09:53:45;-14.62;71.24
73570;SHT30;61850;54.980;73.298;2022-12-07T09:56:16;-14.59;70.69
73570;SHT30;61850;54.980;73.298;2022-12-07T09:58:43;-14.59;69.75
73570;SHT30;61850;54.980;73.298;2022-12-07T10:01:18;-14.70;68.44
73570;SHT30;61850;54.980;73.298;2022-12-07T10:04:09;-14.63;68.47
73570;SHT30;61850;54.980;73.298;2022-12-07T10:06:30;-14.77;67.30
73570;SHT30;61850;54.980;73.298;2022-12-07T10:08:57;-14.77;67.44
73570;SHT30;61850;54.980;73.298;2022-12-07T10:11:23;-14.76;67.59
73570;SHT30;61850;54.980;73.298;2022-12-07T10:13:51;-14.80;67.48
73570;SHT30;61850;54.980;73.298;2022-12-07T10:18:48;-14.81;67.92
73570;SHT30;61850;54.980;73.298;2022-12-07T10:21:25;-14.76;68.34
73570;SHT30;61850;54.980;73.298;2022-12-07T10:24:04;-14.86;68.51
73570;SHT30;61850;54.980;73.298;2022-12-07T10:26:34;-14.80;68.74
73570;SHT30;61850;54.980;73.298;2022-12-07T10:29:04;-14.83;69.17
73570;SHT30;61850;54.980;73.298;2022-12-07T10:31:40;-14.79;69.35
73570;SHT30;61850;54.980;73.298;2022-12-07T10:34:15;-14.76;69.71
73570;SHT30;61850;54.980;73.298;2022-12-07T10:36:47;-14.84;69.94
73570;SHT30;61850;54.980;73.298;2022-12-07T10:39:15;-14.86;70.14
73570;SHT30;61850;54.980;73.298;2022-12-07T10:41:57;-14.84;70.14
73570;SHT30;61850;54.980;73.298;2022-12-07T10:44:28;-14.84;70.35
73570;SHT30;61850;54.980;73.298;2022-12-07T10:55:01;-15.00;71.97
73570;SHT30;61850;54.980;73.298;2022-12-07T10:57:33;-15.05;72.19
73570;SHT30;61850;54.980;73.298;2022-12-07T11:00:04;-15.07;72.41
73570;SHT30;61850;54.980;73.298;2022-12-07T11:10:43;-15.12;72.86
73570;SHT30;61850;54.980;73.298;2022-12-07T11:18:19;-15.10;73.02
73570;SHT30;61850;54.980;73.298;2022-12-07T11:21:10;-15.11;73.24
73570;SHT30;61850;54.980;73.298;2022-12-07T11:26:18;-15.08;73.51
73570;SHT30;61850;54.980;73.298;2022-12-07T11:29:00;-15.07;73.71
73570;SHT30;61850;54.980;73.298;2022-12-07T11:34:08;-15.03;73.31
73570;SHT30;61850;54.980;73.298;2022-12-07T11:39:30;-15.10;74.07
73570;SHT30;61850;54.980;73.298;2022-12-07T11:42:10;-15.10;74.38
73570;SHT30;61850;54.980;73.298;2022-12-07T11:44:51;-15.14;74.82
73570;SHT30;61850;54.980;73.298;2022-12-07T11:47:22;-15.21;75.11
73570;SHT30;61850;54.980;73.298;2022-12-07T11:52:25;-15.38;75.85
73570;SHT30;61850;54.980;73.298;2022-12-07T11:54:53;-15.36;75.97
73570;SHT30;61850;54.980;73.298;2022-12-07T11:57:34;-15.43;76.15
73570;SHT30;61850;54.980;73.298;2022-12-07T12:00:04;-15.55;76.68
73570;SHT30;61850;54.980;73.298;2022-12-07T12:02:32;-15.65;77.15
73570;SHT30;61850;54.980;73.298;2022-12-07T12:05:12;-15.65;77.36
73570;SHT30;61850;54.980;73.298;2022-12-07T12:07:40;-15.81;77.70
73570;SHT30;61850;54.980;73.298;2022-12-07T12:15:35;-15.87;78.18
73570;SHT30;61850;54.980;73.298;2022-12-07T12:23:13;-15.83;78.34
73570;SHT30;61850;54.980;73.298;2022-12-07T12:25:52;-15.86;78.51
73570;SHT30;61850;54.980;73.298;2022-12-07T12:28:24;-15.90;78.53
73570;SHT30;61850;54.980;73.298;2022-12-07T12:31:10;-15.97;78.60
73570;SHT30;61850;54.980;73.298;2022-12-07T12:33:52;-16.01;78.50
73570;SHT30;61850;54.980;73.298;2022-12-07T12:36:23;-15.98;78.13
73570;SHT30;61850;54.980;73.298;2022-12-07T12:57:33;-16.35;79.42
73570;SHT30;61850;54.980;73.298;2022-12-07T13:00:00;-16.42;79.39
73570;SHT30;61850;54.980;73.298;2022-12-07T13:02:47;-16.43;79.55
73570;SHT30;61850;54.980;73.298;2022-12-07T13:05:24;-16.36;79.66
73570;SHT30;61850;54.980;73.298;2022-12-07T13:07:58;-16.40;79.71
73570;SHT30;61850;54.980;73.298;2022-12-07T13:15:46;-16.60;80.75
73570;SHT30;61850;54.980;73.298;2022-12-07T13:20:46;-16.63;80.54
73570;SHT30;61850;54.980;73.298;2022-12-07T13:26:18;-16.61;80.69
73570;SHT30;61850;54.980;73.298;2022-12-07T13:28:58;-16.68;80.87
73570;SHT30;61850;54.980;73.298;2022-12-07T13:31:37;-16.76;81.32
73570;SHT30;61850;54.980;73.298;2022-12-07T13:34:05;-16.79;81.61
73570;SHT30;61850;54.980;73.298;2022-12-07T13:36:33;-16.83;81.86
73570;SHT30;61850;54.980;73.298;2022-12-07T13:39:10;-16.81;81.85
73570;SHT30;61850;54.980;73.298;2022-12-07T13:41:43;-16.73;81.71
73570;SHT30;61850;54.980;73.298;2022-12-07T13:44:11;-16.79;81.66
73570;SHT30;61850;54.980;73.298;2022-12-07T13:49:26;-16.83;81.56
73570;SHT30;61850;54.980;73.298;2022-12-07T13:52:13;-16.97;81.96
73570;SHT30;61850;54.980;73.298;2022-12-07T13:54:59;-17.01;82.33
73570;SHT30;61850;54.980;73.298;2022-12-07T13:57:37;-17.04;82.30
73570;SHT30;61850;54.980;73.298;2022-12-07T14:00:04;-17.07;82.31
73570;SHT30;61850;54.980;73.298;2022-12-07T14:02:36;-17.07;82.41
73570;SHT30;61850;54.980;73.298;2022-12-07T14:05:22;-17.05;82.44
73570;SHT30;61850;54.980;73.298;2022-12-07T14:10:31;-17.03;82.37
73570;SHT30;61850;54.980;73.298;2022-12-07T14:13:03;-17.14;82.52
73570;SHT30;61850;54.980;73.298;2022-12-07T14:15:52;-17.12;82.62
73570;SHT30;61850;54.980;73.298;2022-12-07T14:21:16;-17.22;82.63
73570;SHT30;61850;54.980;73.298;2022-12-07T14:23:45;-17.18;82.69
73570;SHT30;61850;54.980;73.298;2022-12-07T14:26:30;-17.15;82.63
73570;SHT30;61850;54.980;73.298;2022-12-07T14:29:18;-17.19;82.75
73570;SHT30;61850;54.980;73.298;2022-12-07T14:31:42;-17.24;82.73
73570;SHT30;61850;54.980;73.298;2022-12-07T14:34:12;-17.21;82.88
73570;SHT30;61850;54.980;73.298;2022-12-07T14:36:41;-17.28;82.94
73570;SHT30;61850;54.980;73.298;2022-12-07T14:39:07;-17.25;82.83
73570;SHT30;61850;54.980;73.298;2022-12-07T14:41:34;-17.25;82.79
73570;SHT30;61850;54.980;73.298;2022-12-07T14:44:19;-17.22;82.56
73570;SHT30;61850;54.980;73.298;2022-12-07T14:46:48;-17.24;82.68
73570;SHT30;61850;54.980;73.298;2022-12-07T14:49:20;-17.28;82.74
73570;SHT30;61850;54.980;73.298;2022-12-07T14:51:46;-17.29;82.80
73570;SHT30;61850;54.980;73.298;2022-12-07T14:54:19;-17.32;82.91
73570;SHT30;61850;54.980;73.298;2022-12-07T14:56:45;-17.35;82.92
73570;SHT30;61850;54.980;73.298;2022-12-07T14:59:21;-17.35;82.96
73570;SHT30;61850;54.980;73.298;2022-12-07T15:01:48;-17.31;82.90
73570;SHT30;61850;54.980;73.298;2022-12-07T15:04:14;-17.32;82.90
73570;SHT30;61850;54.980;73.298;2022-12-07T15:06:41;-17.39;82.91
73570;SHT30;61850;54.980;73.298;2022-12-07T15:09:10;-17.45;82.92
73570;SHT30;61850;54.980;73.298;2022-12-07T15:11:40;-17.43;82.93
73570;SHT30;61850;54.980;73.298;2022-12-07T15:14:06;-17.50;82.97
73570;SHT30;61850;54.980;73.298;2022-12-07T15:16:40;-17.57;82.89
73570;SHT30;61850;54.980;73.298;2022-12-07T15:19:14;-17.69;82.74
73570;SHT30;61850;54.980;73.298;2022-12-07T15:21:46;-17.76;82.94
73570;SHT30;61850;54.980;73.298;2022-12-07T15:24:17;-17.84;82.85
73570;SHT30;61850;54.980;73.298;2022-12-07T15:26:44;-17.98;82.91
73570;SHT30;61850;54.980;73.298;2022-12-07T15:29:20;-18.04;83.19
73570;SHT30;61850;54.980;73.298;2022-12-07T15:31:47;-17.98;83.14
73570;SHT30;61850;54.980;73.298;2022-12-07T15:34:15;-18.07;82.89
73570;SHT30;61850;54.980;73.298;2022-12-07T15:36:42;-18.07;82.98
73570;SHT30;61850;54.980;73.298;2022-12-07T15:39:14;-18.09;82.94
73570;SHT30;61850;54.980;73.298;2022-12-07T15:41:45;-18.14;82.89
73570;SHT30;61850;54.980;73.298;2022-12-07T15:44:16;-18.16;82.87
73570;SHT30;61850;54.980;73.298;2022-12-07T15:47:01;-18.19;82.68
73570;SHT30;61850;54.980;73.298;2022-12-07T15:49:27;-18.32;82.62
73570;SHT30;61850;54.980;73.298;2022-12-07T15:51:54;-18.37;82.60
73570;SHT30;61850;54.980;73.298;2022-12-07T15:56:51;-18.52;82.19
73570;SHT30;61850;54.980;73.298;2022-12-07T15:59:22;-18.47;82.11
73570;SHT30;61850;54.980;73.298;2022-12-07T16:01:48;-18.52;82.00
73570;SHT30;61850;54.980;73.298;2022-12-07T16:04:26;-18.61;82.15
73570;SHT30;61850;54.980;73.298;2022-12-07T16:07:17;-18.64;82.16
73570;SHT30;61850;54.980;73.298;2022-12-07T16:09:45;-18.71;82.09
73570;SHT30;61850;54.980;73.298;2022-12-07T16:12:12;-18.77;81.88
73570;SHT30;61850;54.980;73.298;2022-12-07T16:14:39;-18.89;81.71
73570;SHT30;61850;54.980;73.298;2022-12-07T16:17:06;-18.89;81.68
73570;SHT30;61850;54.980;73.298;2022-12-07T16:19:33;-18.97;81.67
73570;SHT30;61850;54.980;73.298;2022-12-07T16:21:59;-19.05;81.71
73570;SHT30;61850;54.980;73.298;2022-12-07T16:24:29;-19.08;81.84
73570;SHT30;61850;54.980;73.298;2022-12-07T16:26:56;-19.06;81.80
73570;SHT30;61850;54.980;73.298;2022-12-07T16:29:22;-19.06;81.93
73570;SHT30;61850;54.980;73.298;2022-12-07T16:31:49;-19.11;81.87
73570;SHT30;61850;54.980;73.298;2022-12-07T16:34:15;-19.11;81.89
73570;SHT30;61850;54.980;73.298;2022-12-07T16:36:42;-19.14;81.92
73570;SHT30;61850;54.980;73.298;2022-12-07T16:39:08;-19.05;81.84
73570;SHT30;61850;54.980;73.298;2022-12-07T16:41:35;-19.11;81.82
73570;SHT30;61850;54.980;73.298;2022-12-07T16:44:05;-19.14;81.66
73570;SHT30;61850;54.980;73.298;2022-12-07T16:46:35;-19.19;81.74
73570;SHT30;61850;54.980;73.298;2022-12-07T16:49:02;-19.25;81.87
73570;SHT30;61850;54.980;73.298;2022-12-07T16:51:29;-19.30;82.00
73570;SHT30;61850;54.980;73.298;2022-12-07T16:53:55;-19.30;81.95
73570;SHT30;61850;54.980;73.298;2022-12-07T16:56:22;-19.37;82.07
73570;SHT30;61850;54.980;73.298;2022-12-07T16:58:48;-19.43;82.23
73570;SHT30;61850;54.980;73.298;2022-12-07T17:01:25;-19.42;82.35
73570;SHT30;61850;54.980;73.298;2022-12-07T17:03:56;-19.33;82.11
73570;SHT30;61850;54.980;73.298;2022-12-07T17:06:23;-19.35;81.69
73570;SHT30;61850;54.980;73.298;2022-12-07T17:08:50;-19.53;81.59
73570;SHT30;61850;54.980;73.298;2022-12-07T17:11:25;-19.50;81.62
73570;SHT30;61850;54.980;73.298;2022-12-07T17:13:58;-19.66;81.42
73570;SHT30;61850;54.980;73.298;2022-12-07T17:16:45;-19.76;81.72
73570;SHT30;61850;54.980;73.298;2022-12-07T17:19:12;-19.77;81.87
73570;SHT30;61850;54.980;73.298;2022-12-07T17:21:39;-19.76;81.96
73570;SHT30;61850;54.980;73.298;2022-12-07T17:24:07;-19.77;81.85
73570;SHT30;61850;54.980;73.298;2022-12-07T17:26:34;-19.73;81.98